createdAt,value
2022-10-03T00:00:31.411Z,98659.44
2022-10-03T00:03:39.879Z,98669.19
2022-10-03T00:06:35.876Z,98675.72
2022-10-03T00:09:34.105Z,98673.59
2022-10-03T00:12:41.550Z,98655.38
2022-10-03T00:15:31.068Z,98661.72
2022-10-03T00:18:15.384Z,98656.03
2022-10-03T00:21:17.593Z,98655.19
2022-10-03T00:24:09.899Z,98656.34
2022-10-03T00:27:06.577Z,98645.78
2022-10-03T00:30:15.426Z,98629.31
2022-10-03T00:33:20.213Z,98626.13
2022-10-03T00:36:12.021Z,98567.59
2022-10-03T00:39:00.986Z,98624.66
2022-10-03T00:42:08.159Z,98623.31
2022-10-03T00:45:22.015Z,98625.22
2022-10-03T00:48:33.262Z,98619.72
2022-10-03T00:51:41.535Z,98620.75
2022-10-03T00:54:42.645Z,98610.84
2022-10-03T00:57:52.980Z,98607.41
2022-10-03T01:00:42.001Z,98580.94
2022-10-03T01:04:01.514Z,98577.47
2022-10-03T01:07:02.202Z,98578.28
2022-10-03T01:10:04.247Z,98596.22
2022-10-03T01:13:00.441Z,98609.72
2022-10-03T01:16:24.470Z,98622.72
2022-10-03T01:19:05.949Z,98633.09
2022-10-03T01:22:01.426Z,98643.28
2022-10-03T01:24:43.943Z,98637.91
2022-10-03T01:28:05.160Z,98642.50
2022-10-03T01:30:55.105Z,98649.34
2022-10-03T01:33:58.716Z,98650.34
2022-10-03T01:36:59.756Z,98648.63
2022-10-03T01:40:26.011Z,98658.19
2022-10-03T01:43:22.833Z,98643.91
2022-10-03T01:46:29.517Z,98648.66
2022-10-03T01:49:10.112Z,98645.06
2022-10-03T01:52:02.575Z,98641.50
2022-10-03T01:55:00.449Z,98648.44
2022-10-03T01:58:16.129Z,98652.84
2022-10-03T02:01:04.056Z,98655.63
2022-10-03T02:03:45.101Z,98652.75
2022-10-03T02:06:41.083Z,98637.44
2022-10-03T02:09:35.399Z,98634.59
2022-10-03T02:12:25.582Z,98621.41
2022-10-03T02:15:02.642Z,98636.25
2022-10-03T02:17:59.058Z,98635.25
2022-10-03T02:20:45.213Z,98648.63
2022-10-03T02:23:39.543Z,98635.06
2022-10-03T02:29:35.499Z,98642.16
2022-10-03T02:32:36.420Z,98647.13
2022-10-03T02:35:31.059Z,98642.72
2022-10-03T02:38:24.544Z,98643.72
2022-10-03T02:41:28.416Z,98642.78
2022-10-03T02:44:42.460Z,98649.78
2022-10-03T02:47:45.243Z,98635.50
2022-10-03T02:51:00.351Z,98646.47
2022-10-03T02:54:10.033Z,98650.81
2022-10-03T02:57:10.006Z,98642.78
2022-10-03T03:00:09.081Z,98654.63
2022-10-03T03:03:17.915Z,98662.00
2022-10-03T03:06:04.955Z,98652.53
2022-10-03T03:09:25.733Z,98665.34
2022-10-03T03:12:20.125Z,98665.69
2022-10-03T03:15:23.358Z,98663.34
2022-10-03T03:18:14.546Z,98672.88
2022-10-03T03:21:17.245Z,98668.66
2022-10-03T03:24:06.956Z,98671.53
2022-10-03T03:27:16.654Z,98679.44
2022-10-03T03:30:02.535Z,98682.88
2022-10-03T03:32:57.445Z,98688.88
2022-10-03T03:35:48.154Z,98700.09
2022-10-03T03:38:48.650Z,98694.94
2022-10-03T03:41:58.631Z,98696.19
2022-10-03T03:45:24.057Z,98704.00
2022-10-03T03:48:42.280Z,98705.31
2022-10-03T03:52:09.160Z,98714.13
2022-10-03T03:55:24.696Z,98710.19
2022-10-03T03:58:31.611Z,98722.03
2022-10-03T04:01:19.552Z,98727.22
2022-10-03T04:04:36.849Z,98737.44
2022-10-03T04:07:40.329Z,98733.22
2022-10-03T04:11:06.647Z,98737.97
2022-10-03T04:13:45.782Z,98736.34
2022-10-03T04:16:52.537Z,98736.00
2022-10-03T04:20:06.327Z,98732.44
2022-10-03T04:23:03.595Z,98731.84
2022-10-03T04:26:34.101Z,98734.00
2022-10-03T04:29:46.040Z,98747.31
2022-10-03T04:32:46.733Z,98725.69
2022-10-03T04:35:48.724Z,98744.09
2022-10-03T04:39:06.607Z,98746.94
2022-10-03T04:41:49.178Z,98741.13
2022-10-03T04:44:45.284Z,98755.72
2022-10-03T04:47:35.588Z,98736.91
2022-10-03T04:50:36.098Z,98749.06
2022-10-03T04:53:43.634Z,98749.44
2022-10-03T04:56:34.498Z,98754.63
2022-10-03T04:59:19.323Z,98747.88
2022-10-03T05:02:05.416Z,98757.03
2022-10-03T05:05:08.697Z,98757.75
2022-10-03T05:08:10.086Z,98762.50
2022-10-03T05:10:49.444Z,98758.72
2022-10-03T05:13:29.246Z,98756.56
2022-10-03T05:16:43.706Z,98730.94
2022-10-03T05:19:48.050Z,98756.41
2022-10-03T05:23:01.187Z,98768.81
2022-10-03T05:25:46.156Z,98768.19
2022-10-03T05:28:31.491Z,98776.63
2022-10-03T05:31:38.371Z,98782.16
2022-10-03T05:34:54.127Z,98790.41
2022-10-03T05:38:07.743Z,98796.97
2022-10-03T05:40:50.714Z,98804.84
2022-10-03T05:43:39.608Z,98804.97
2022-10-03T05:46:45.737Z,98804.06
2022-10-03T05:49:43.137Z,98808.16
2022-10-03T05:55:58.569Z,98822.75
2022-10-03T05:58:56.225Z,98835.94
2022-10-03T06:01:58.806Z,98844.25
2022-10-03T06:05:06.856Z,98843.38
2022-10-03T06:08:10.092Z,98845.97
2022-10-03T06:11:17.776Z,98846.09
2022-10-03T06:14:10.004Z,98867.00
2022-10-03T06:17:16.648Z,98869.47
2022-10-03T06:20:34.182Z,98878.63
2022-10-03T06:23:08.140Z,98884.66
2022-10-03T06:25:54.143Z,98892.56
2022-10-03T06:28:42.786Z,98887.63
2022-10-03T06:31:51.038Z,98897.28
2022-10-03T06:35:01.322Z,98901.38
2022-10-03T06:37:57.119Z,98896.75
2022-10-03T06:41:07.341Z,98895.19
2022-10-03T06:43:57.167Z,98909.56
2022-10-03T06:46:58.666Z,98913.47
2022-10-03T06:50:13.691Z,98920.34
2022-10-03T06:53:22.322Z,98908.88
2022-10-03T06:56:44.184Z,98908.56
2022-10-03T06:59:50.866Z,98917.81
2022-10-03T07:02:52.688Z,98886.47
2022-10-03T07:05:40.988Z,98910.97
2022-10-03T07:08:48.420Z,98919.13
2022-10-03T07:12:10.807Z,98914.00
2022-10-03T07:15:08.421Z,98913.78
2022-10-03T07:18:03.185Z,98907.72
2022-10-03T07:20:55.057Z,98918.22
2022-10-03T07:24:18.685Z,98915.59
2022-10-03T07:27:04.561Z,98914.81
2022-10-03T07:30:23.147Z,98916.13
2022-10-03T07:33:33.386Z,98915.06
2022-10-03T07:37:14.735Z,98917.69
2022-10-03T07:40:22.832Z,98925.56
2022-10-03T07:43:34.118Z,98930.63
2022-10-03T07:46:48.747Z,98929.78
2022-10-03T07:49:41.269Z,98931.88
2022-10-03T07:52:56.219Z,98939.38
2022-10-03T07:55:30.928Z,98938.28
2022-10-03T07:58:40.058Z,98947.34
2022-10-03T08:01:29.407Z,98931.69
2022-10-03T08:04:45.609Z,98939.09
2022-10-03T08:07:57.839Z,98936.59
2022-10-03T08:14:23.108Z,98932.88
2022-10-03T08:17:28.562Z,98939.59
2022-10-03T08:20:41.441Z,98934.63
2022-10-03T08:23:47.259Z,98936.44
2022-10-03T08:26:38.478Z,98935.97
2022-10-03T08:29:45.063Z,98937.56
2022-10-03T08:32:45.170Z,98882.28
2022-10-03T08:35:55.575Z,98937.41
2022-10-03T08:38:58.564Z,98942.97
2022-10-03T08:41:56.607Z,98943.19
2022-10-03T08:44:36.409Z,98938.13
2022-10-03T08:47:50.186Z,98944.19
2022-10-03T08:50:40.048Z,98946.56
2022-10-03T08:53:33.414Z,98942.78
2022-10-03T08:56:25.610Z,98937.13
2022-10-03T08:59:14.758Z,98942.13
2022-10-03T09:02:31.375Z,98938.84
2022-10-03T09:05:30.628Z,98933.78
2022-10-03T09:08:53.646Z,98933.66
2022-10-03T09:11:47.324Z,98926.97
2022-10-03T09:14:36.552Z,98923.03
2022-10-03T09:17:30.742Z,98918.94
2022-10-03T09:20:27.004Z,98920.22
2022-10-03T09:23:16.589Z,98920.72
2022-10-03T09:26:28.491Z,98912.22
2022-10-03T09:29:52.495Z,98906.66
2022-10-03T09:33:03.691Z,98910.56
2022-10-03T09:35:55.523Z,98913.47
2022-10-03T09:39:00.049Z,98901.84
2022-10-03T09:42:12.668Z,98900.03
2022-10-03T09:45:36.759Z,98889.41
2022-10-03T09:48:21.652Z,98879.28
2022-10-03T09:51:13.348Z,98886.69
2022-10-03T09:54:15.336Z,98886.63
2022-10-03T09:57:30.129Z,98883.38
2022-10-03T10:00:38.887Z,98865.13
2022-10-03T10:03:34.885Z,98868.78
2022-10-03T10:06:28.138Z,98858.53
2022-10-03T10:09:43.514Z,98868.41
2022-10-03T10:12:43.380Z,98849.50
2022-10-03T10:15:55.025Z,98852.41
2022-10-03T10:18:42.883Z,98859.91
2022-10-03T10:21:34.068Z,98842.84
2022-10-03T10:24:44.273Z,98837.47
2022-10-03T10:27:52.542Z,98823.25
2022-10-03T10:31:16.975Z,98828.44
2022-10-03T10:34:08.353Z,98830.72
2022-10-03T10:37:19.599Z,98818.78
2022-10-03T10:39:58.844Z,98813.63
2022-10-03T10:42:46.661Z,98808.72
2022-10-03T10:46:14.381Z,98812.44
2022-10-03T10:49:21.959Z,98812.84
2022-10-03T10:52:23.929Z,98811.66
2022-10-03T10:55:17.771Z,98809.13
2022-10-03T10:58:28.633Z,98806.50
2022-10-03T11:01:41.701Z,98803.38
2022-10-03T11:04:55.832Z,98800.19
2022-10-03T11:07:48.706Z,98799.09
2022-10-03T11:10:56.662Z,98791.31
2022-10-03T11:13:46.068Z,98797.28
2022-10-03T11:16:50.342Z,98797.16
2022-10-03T11:20:02.058Z,98789.63
2022-10-03T11:23:12.962Z,98785.50
2022-10-03T11:26:28.821Z,98776.81
2022-10-03T11:29:53.040Z,98777.41
2022-10-03T11:33:06.093Z,98773.16
2022-10-03T11:35:51.427Z,98785.22
2022-10-03T11:38:28.802Z,98770.94
2022-10-03T11:41:38.460Z,98762.63
2022-10-03T11:44:27.650Z,98769.94
2022-10-03T11:47:35.669Z,98750.84
2022-10-03T11:50:48.391Z,98745.00
2022-10-03T11:53:46.262Z,98750.06
2022-10-03T11:56:33.515Z,98752.56
2022-10-03T11:59:33.626Z,98745.00
2022-10-03T12:02:41.993Z,98755.59
2022-10-03T12:05:49.474Z,98752.44
2022-10-03T12:08:59.205Z,98750.03
2022-10-03T12:11:46.530Z,98752.91
2022-10-03T12:14:37.720Z,98744.47
2022-10-03T12:17:17.094Z,98747.53
2022-10-03T12:20:11.215Z,98739.06
2022-10-03T12:22:55.517Z,98722.44
2022-10-03T12:25:33.488Z,98727.78
2022-10-03T12:28:38.382Z,98731.56
2022-10-03T12:31:28.511Z,98738.06
2022-10-03T12:34:25.448Z,98731.06
2022-10-03T12:37:26.993Z,98720.34
2022-10-03T12:40:26.549Z,98714.53
2022-10-03T12:43:27.656Z,98715.06
2022-10-03T12:46:25.108Z,98718.97
2022-10-03T12:49:31.720Z,98705.47
2022-10-03T12:52:47.091Z,98701.50
2022-10-03T12:55:44.386Z,98701.03
2022-10-03T12:59:11.059Z,98705.50
2022-10-03T13:02:06.639Z,98707.25
2022-10-03T13:05:29.579Z,98707.00
2022-10-03T13:08:31.235Z,98705.34
2022-10-03T13:11:59.525Z,98700.75
2022-10-03T13:15:16.113Z,98695.53
2022-10-03T13:18:30.925Z,98699.91
2022-10-03T13:25:01.272Z,98689.78
2022-10-03T13:28:07.114Z,98694.00
2022-10-03T13:31:35.707Z,98684.69
2022-10-03T13:34:25.978Z,98678.44
2022-10-03T13:37:36.902Z,98669.94
2022-10-03T13:40:30.021Z,98675.91
2022-10-03T13:43:13.497Z,98675.06
2022-10-03T13:46:02.367Z,98668.66
2022-10-03T13:49:02.549Z,98669.47
2022-10-03T13:51:52.296Z,98664.34
2022-10-03T13:55:20.791Z,98681.69
2022-10-03T13:58:28.707Z,98675.41
2022-10-03T14:01:11.693Z,98673.31
2022-10-03T14:04:14.505Z,98674.81
2022-10-03T14:13:33.586Z,98665.50
2022-10-03T14:16:30.265Z,98674.31
2022-10-03T14:19:24.903Z,98672.06
2022-10-03T14:22:38.085Z,98675.28
2022-10-03T14:26:00.157Z,98670.22
2022-10-03T14:29:16.743Z,98673.22
2022-10-03T14:32:47.771Z,98676.75
2022-10-03T14:35:49.758Z,98680.03
2022-10-03T14:39:07.813Z,98673.00
2022-10-03T14:42:29.009Z,98676.22
2022-10-03T14:45:14.389Z,98663.75
2022-10-03T14:48:19.236Z,98676.22
2022-10-03T14:51:02.082Z,98678.06
2022-10-03T14:53:40.309Z,98662.94
2022-10-03T14:56:29.905Z,98676.94
2022-10-03T14:59:11.418Z,98682.00
2022-10-03T15:02:01.276Z,98685.44
2022-10-03T15:04:44.176Z,98677.72
2022-10-03T15:07:27.208Z,98683.13
2022-10-03T15:10:26.210Z,98682.97
2022-10-03T15:13:13.868Z,98681.81
2022-10-03T15:15:51.530Z,98676.94
2022-10-03T15:18:49.408Z,98677.59
2022-10-03T15:21:34.387Z,98684.16
2022-10-03T15:24:12.950Z,98681.53
2022-10-03T15:26:50.157Z,98682.44
2022-10-03T15:29:57.234Z,98686.88
2022-10-03T15:33:20.736Z,98690.72
2022-10-03T15:36:45.493Z,98684.78
2022-10-03T15:39:52.703Z,98693.09
2022-10-03T15:42:44.096Z,98698.69
2022-10-03T15:45:42.625Z,98697.09
2022-10-03T15:48:28.514Z,98702.72
2022-10-03T15:51:12.661Z,98703.09
2022-10-03T15:54:03.625Z,98700.97
2022-10-03T15:56:56.127Z,98708.84
2022-10-03T15:59:52.880Z,98705.53
2022-10-03T16:03:02.391Z,98712.88
2022-10-03T16:05:52.692Z,98697.28
2022-10-03T16:08:46.260Z,98710.91
2022-10-03T16:11:54.876Z,98720.03
2022-10-03T16:14:48.554Z,98725.75
2022-10-03T16:18:05.523Z,98726.03
2022-10-03T16:20:55.099Z,98724.13
2022-10-03T16:23:49.357Z,98708.63
2022-10-03T16:26:40.335Z,98733.44
2022-10-03T16:29:44.166Z,98735.53
2022-10-03T16:32:29.186Z,98742.03
2022-10-03T16:35:03.779Z,98742.28
2022-10-03T16:37:35.739Z,98733.50
2022-10-03T16:40:15.011Z,98737.22
2022-10-03T16:43:02.630Z,98736.13
2022-10-03T16:45:47.459Z,98747.13
2022-10-03T16:48:48.686Z,98751.19
2022-10-03T16:51:30.993Z,98744.56
2022-10-03T16:54:00.505Z,98746.13
2022-10-03T16:56:56.330Z,98755.25
2022-10-03T16:59:35.547Z,98754.03
2022-10-03T17:02:17.593Z,98742.47
2022-10-03T17:05:03.228Z,98753.19
2022-10-03T17:07:51.780Z,98759.44
2022-10-03T17:10:45.651Z,98761.69
2022-10-03T17:13:26.702Z,98775.66
2022-10-03T17:16:46.291Z,98775.59
2022-10-03T17:19:31.533Z,98781.91
2022-10-03T17:22:24.446Z,98778.03
2022-10-03T17:25:55.016Z,98789.00
2022-10-03T17:28:46.381Z,98800.28
2022-10-03T17:31:59.953Z,98797.63
2022-10-03T17:35:25.744Z,98804.84
2022-10-03T17:38:48.987Z,98804.66
2022-10-03T17:41:59.623Z,98817.69
2022-10-03T17:44:55.127Z,98823.50
2022-10-03T17:48:04.714Z,98823.28
2022-10-03T17:50:57.105Z,98834.06
2022-10-03T17:53:32.801Z,98837.94
2022-10-03T17:56:14.623Z,98835.31
2022-10-03T17:58:49.537Z,98836.25
2022-10-03T18:01:31.366Z,98826.50
2022-10-03T18:04:11.598Z,98845.19
2022-10-03T18:06:50.670Z,98852.22
2022-10-03T18:09:49.133Z,98860.31
2022-10-03T18:12:49.183Z,98854.19
2022-10-03T18:19:03.322Z,98863.28
2022-10-03T18:22:06.019Z,98862.84
2022-10-03T18:25:03.766Z,98867.69
2022-10-03T18:28:15.358Z,98873.00
2022-10-03T18:31:18.296Z,98874.63
2022-10-03T18:33:59.435Z,98884.53
2022-10-03T18:36:41.262Z,98884.19
2022-10-03T18:39:35.926Z,98895.06
2022-10-03T18:42:12.118Z,98887.69
2022-10-03T18:44:49.232Z,98893.50
2022-10-03T18:47:39.904Z,98897.78
2022-10-03T18:50:43.548Z,98906.78
2022-10-03T18:53:30.275Z,98900.25
2022-10-03T18:56:13.281Z,98906.88
2022-10-03T18:59:19.053Z,98913.31
2022-10-03T19:02:02.477Z,98930.91
2022-10-03T19:04:51.321Z,98928.97
2022-10-03T19:07:39.407Z,98922.53
2022-10-03T19:10:33.702Z,98949.16
2022-10-03T19:13:18.013Z,98953.69
2022-10-03T19:16:19.123Z,98951.66
2022-10-03T19:19:24.179Z,98951.25
2022-10-03T19:22:00.008Z,98941.16
2022-10-03T19:24:57.912Z,98950.53
2022-10-03T19:28:05.861Z,98959.47
2022-10-03T19:30:46.881Z,98958.53
2022-10-03T19:33:29.447Z,98955.13
2022-10-03T19:36:11.070Z,98968.72
2022-10-03T19:38:45.808Z,98969.31
2022-10-03T19:41:41.973Z,98977.09
2022-10-03T19:44:23.880Z,98971.28
2022-10-03T19:47:16.208Z,98971.06
2022-10-03T19:49:49.257Z,98974.41
2022-10-03T19:52:30.482Z,98984.94
2022-10-03T19:55:11.986Z,98986.13
2022-10-03T19:58:01.982Z,98978.56
2022-10-03T20:01:03.390Z,98961.69
2022-10-03T20:03:44.958Z,98986.06
2022-10-03T20:06:51.186Z,98966.97
2022-10-03T20:09:33.380Z,98986.69
2022-10-03T20:12:34.777Z,98987.25
2022-10-03T20:15:28.687Z,98985.44
2022-10-03T20:18:15.044Z,98987.25
2022-10-03T20:20:48.597Z,98988.50
2022-10-03T20:23:33.356Z,98988.88
2022-10-03T20:26:35.515Z,98991.06
2022-10-03T20:29:19.434Z,99002.16
2022-10-03T20:31:58.817Z,98998.78
2022-10-03T20:34:30.347Z,98985.47
2022-10-03T20:37:34.967Z,98995.16
2022-10-03T20:40:40.084Z,99004.78
2022-10-03T20:43:45.092Z,99012.28
2022-10-03T20:46:26.915Z,99006.66
2022-10-03T20:49:35.261Z,99013.00
2022-10-03T20:52:40.179Z,99025.22
2022-10-03T20:55:28.588Z,99021.19
2022-10-03T20:58:47.948Z,99031.34
2022-10-03T21:01:27.962Z,99027.38
2022-10-03T21:04:26.607Z,99025.84
2022-10-03T21:07:02.591Z,99023.50
2022-10-03T21:09:59.297Z,99030.94
2022-10-03T21:12:50.415Z,99029.19
2022-10-03T21:15:52.716Z,99024.34
2022-10-03T21:18:38.246Z,99029.00
2022-10-03T21:21:19.308Z,99033.88
2022-10-03T21:24:18.561Z,99037.28
2022-10-03T21:27:21.370Z,99043.13
2022-10-03T21:30:05.286Z,99046.66
2022-10-03T21:32:53.460Z,99050.63
2022-10-03T21:35:35.086Z,99054.31
2022-10-03T21:38:18.884Z,99061.13
2022-10-03T21:41:09.309Z,99058.25
2022-10-03T21:44:12.947Z,99050.25
2022-10-03T21:47:06.196Z,99054.28
2022-10-03T21:50:12.653Z,99047.94
2022-10-03T21:53:45.679Z,99055.34
2022-10-03T21:56:54.580Z,99059.06
2022-10-03T21:59:52.737Z,99061.47
2022-10-03T22:02:41.366Z,99062.38
2022-10-03T22:05:57.181Z,99062.44
2022-10-03T22:08:36.617Z,99058.72
2022-10-03T22:11:35.516Z,99058.63
2022-10-03T22:14:32.817Z,99060.50
2022-10-03T22:17:36.499Z,99062.78
2022-10-03T22:20:28.760Z,99060.97
2022-10-03T22:23:30.111Z,99070.31
2022-10-03T22:26:14.131Z,99069.34
2022-10-03T22:29:08.457Z,99063.69
2022-10-03T22:31:53.237Z,99065.63
2022-10-03T22:34:37.624Z,99075.63
2022-10-03T22:37:12.151Z,99071.63
2022-10-03T22:39:57.337Z,99078.72
2022-10-03T22:42:43.306Z,99069.66
2022-10-03T22:45:19.078Z,99063.22
2022-10-03T22:48:08.983Z,99068.16
2022-10-03T22:50:44.573Z,99071.69
2022-10-03T22:53:30.013Z,99083.03
2022-10-03T22:56:12.120Z,99054.94
2022-10-03T22:58:48.982Z,99075.22
2022-10-03T23:01:26.219Z,99085.19
2022-10-03T23:04:04.595Z,99077.09
2022-10-03T23:06:58.248Z,99083.88
2022-10-03T23:10:24.780Z,99052.94
2022-10-03T23:13:24.544Z,99080.22
2022-10-03T23:16:09.847Z,99073.41
2022-10-03T23:19:03.138Z,99083.69
2022-10-03T23:21:34.293Z,99081.63
2022-10-03T23:24:18.770Z,99080.22
2022-10-03T23:27:16.664Z,99076.63
2022-10-03T23:29:44.805Z,99081.53
2022-10-03T23:32:16.211Z,99074.88
2022-10-03T23:34:56.249Z,99077.47
2022-10-03T23:37:46.456Z,99080.50
2022-10-03T23:40:41.560Z,99077.34
2022-10-03T23:43:41.758Z,99077.03
2022-10-03T23:49:16.656Z,99066.75
2022-10-03T23:51:44.829Z,99093.13
2022-10-03T23:54:22.161Z,99095.25
2022-10-03T23:57:06.578Z,99089.69
2022-10-03T23:59:42.636Z,99090.06
